createdAt,value
2023-04-04T00:00:54.108Z,4.51
2023-04-04T00:01:54.083Z,4.48
2023-04-04T00:02:54.133Z,4.47
2023-04-04T00:03:54.279Z,4.48
2023-04-04T00:04:54.066Z,4.47
2023-04-04T00:05:54.732Z,4.45
2023-04-04T00:06:54.714Z,4.43
2023-04-04T00:07:54.706Z,4.43
2023-04-04T00:08:54.021Z,4.42
2023-04-04T00:09:54.681Z,4.41
2023-04-04T00:10:53.983Z,4.40
2023-04-04T00:11:53.969Z,4.39
2023-04-04T00:12:53.969Z,4.40
2023-04-04T00:13:54.620Z,4.38
2023-04-04T00:14:53.941Z,4.37
2023-04-04T00:15:54.631Z,4.37
2023-04-04T00:16:53.923Z,4.36
2023-04-04T00:17:53.936Z,4.35
2023-04-04T00:18:54.566Z,4.35
2023-04-04T00:19:54.571Z,4.35
2023-04-04T00:20:54.565Z,4.35
2023-04-04T00:21:54.552Z,4.34
2023-04-04T00:22:53.861Z,4.33
2023-04-04T00:23:53.867Z,4.32
2023-04-04T00:24:53.843Z,4.31
2023-04-04T00:25:54.512Z,4.31
2023-04-04T00:26:54.503Z,4.30
2023-04-04T00:27:53.800Z,4.30
2023-04-04T00:28:53.826Z,4.29
2023-04-04T00:29:53.786Z,4.28
2023-04-04T00:30:53.770Z,4.27
2023-04-04T00:31:54.722Z,4.26
2023-04-04T00:32:54.489Z,4.26
2023-04-04T00:33:54.409Z,4.24
2023-04-04T00:34:54.416Z,4.24
2023-04-04T00:35:54.437Z,4.22
2023-04-04T00:36:53.718Z,4.21
2023-04-04T00:37:53.694Z,4.21
2023-04-04T00:38:53.711Z,4.20
2023-04-04T00:39:53.681Z,4.19
2023-04-04T00:40:53.683Z,4.16
2023-04-04T00:41:54.347Z,4.16
2023-04-04T00:42:53.644Z,4.15
2023-04-04T00:43:54.311Z,4.13
2023-04-04T00:44:54.317Z,4.12
2023-04-04T00:45:54.387Z,4.11
2023-04-04T00:46:53.614Z,4.10
2023-04-04T00:47:53.622Z,4.09
2023-04-04T00:48:54.253Z,4.08
2023-04-04T00:49:54.264Z,4.07
2023-04-04T00:50:54.263Z,4.05
2023-04-04T00:51:53.555Z,4.05
2023-04-04T00:52:54.245Z,4.03
2023-04-04T00:53:54.200Z,4.02
2023-04-04T00:54:54.208Z,4.00
2023-04-04T00:55:54.206Z,3.99
2023-04-04T00:56:54.199Z,3.97
2023-04-04T00:57:54.177Z,3.96
2023-04-04T00:58:53.522Z,3.95
2023-04-04T00:59:53.469Z,3.94
2023-04-04T01:00:54.218Z,3.92
2023-04-04T01:01:54.168Z,3.90
2023-04-04T01:02:54.156Z,3.90
2023-04-04T01:03:54.128Z,3.88
2023-04-04T01:04:54.100Z,3.87
2023-04-04T01:05:54.099Z,3.87
2023-04-04T01:06:54.084Z,3.86
2023-04-04T01:07:54.070Z,3.85
2023-04-04T01:08:54.047Z,3.84
2023-04-04T01:09:53.354Z,3.83
2023-04-04T01:10:53.355Z,3.82
2023-04-04T01:11:54.024Z,3.82
2023-04-04T01:12:53.323Z,3.80
2023-04-04T01:13:53.329Z,3.80
2023-04-04T01:14:53.316Z,3.79
2023-04-04T01:15:53.300Z,3.78
2023-04-04T01:16:53.352Z,3.77
2023-04-04T01:17:53.983Z,3.76
2023-04-04T01:18:53.936Z,3.75
2023-04-04T01:19:53.252Z,3.73
2023-04-04T01:20:53.926Z,3.71
2023-04-04T01:21:53.914Z,3.69
2023-04-04T01:22:53.908Z,3.68
2023-04-04T01:23:53.228Z,3.66
2023-04-04T01:24:53.886Z,3.65
2023-04-04T01:25:53.179Z,3.63
2023-04-04T01:26:53.174Z,3.61
2023-04-04T01:27:53.169Z,3.59
2023-04-04T01:28:53.840Z,3.59
2023-04-04T01:29:53.165Z,3.57
2023-04-04T01:30:53.135Z,3.56
2023-04-04T01:31:55.059Z,3.56
2023-04-04T01:32:53.152Z,3.53
2023-04-04T01:33:53.996Z,3.52
2023-04-04T01:34:53.106Z,3.51
2023-04-04T01:35:53.802Z,3.50
2023-04-04T01:36:53.763Z,3.49
2023-04-04T01:37:53.057Z,3.48
2023-04-04T01:38:53.731Z,3.47
2023-04-04T01:39:53.059Z,3.47
2023-04-04T01:40:53.017Z,3.45
2023-04-04T01:41:53.699Z,3.43
2023-04-04T01:42:53.691Z,3.42
2023-04-04T01:43:53.679Z,3.40
2023-04-04T01:44:53.648Z,3.38
2023-04-04T01:45:53.031Z,3.37
2023-04-04T01:46:52.943Z,3.36
2023-04-04T01:47:53.009Z,3.34
2023-04-04T01:48:53.618Z,3.35
2023-04-04T01:49:52.963Z,3.32
2023-04-04T01:50:52.923Z,3.31
2023-04-04T01:51:53.614Z,3.31
2023-04-04T01:52:52.895Z,3.29
2023-04-04T01:53:52.890Z,3.29
2023-04-04T01:54:53.555Z,3.29
2023-04-04T01:55:53.560Z,3.28
2023-04-04T01:56:52.851Z,3.27
2023-04-04T01:57:53.530Z,3.26
2023-04-04T01:58:53.546Z,3.26
2023-04-04T01:59:53.513Z,3.24
2023-04-04T02:00:53.509Z,3.24
2023-04-04T02:01:52.985Z,3.23
2023-04-04T02:02:53.495Z,3.23
2023-04-04T02:03:53.553Z,3.22
2023-04-04T02:04:53.452Z,3.20
2023-04-04T02:05:53.442Z,3.18
2023-04-04T02:06:53.434Z,3.18
2023-04-04T02:07:53.454Z,3.18
2023-04-04T02:08:53.411Z,3.17
2023-04-04T02:09:52.732Z,3.17
2023-04-04T02:10:53.393Z,3.15
2023-04-04T02:11:52.717Z,3.15
2023-04-04T02:12:53.374Z,3.13
2023-04-04T02:13:53.369Z,3.13
2023-04-04T02:14:53.333Z,3.12
2023-04-04T02:15:52.774Z,3.11
2023-04-04T02:16:53.331Z,3.10
2023-04-04T02:17:53.337Z,3.10
2023-04-04T02:18:53.323Z,3.08
2023-04-04T02:19:53.274Z,3.07
2023-04-04T02:20:53.283Z,3.05
2023-04-04T02:21:53.272Z,3.05
2023-04-04T02:22:53.262Z,3.04
2023-04-04T02:23:53.252Z,3.03
2023-04-04T02:24:53.226Z,3.02
2023-04-04T02:25:53.232Z,3.01
2023-04-04T02:26:53.220Z,2.99
2023-04-04T02:27:53.216Z,2.99
2023-04-04T02:28:53.222Z,2.98
2023-04-04T02:29:53.477Z,2.97
2023-04-04T02:30:53.177Z,2.96
2023-04-04T02:31:53.172Z,2.95
2023-04-04T02:32:53.509Z,2.95
2023-04-04T02:33:53.400Z,2.95
2023-04-04T02:34:53.405Z,2.93
2023-04-04T02:35:53.149Z,2.93
2023-04-04T02:36:53.401Z,2.92
2023-04-04T02:37:53.109Z,2.91
2023-04-04T02:38:53.859Z,2.90
2023-04-04T02:39:53.356Z,2.88
2023-04-04T02:40:53.347Z,2.88
2023-04-04T02:41:53.318Z,2.86
2023-04-04T02:42:53.324Z,2.86
2023-04-04T02:43:53.293Z,2.84
2023-04-04T02:44:53.013Z,2.84
2023-04-04T02:45:53.292Z,2.82
2023-04-04T02:46:53.018Z,2.83
2023-04-04T02:47:53.340Z,2.80
2023-04-04T02:48:53.251Z,2.79
2023-04-04T02:49:52.967Z,2.77
2023-04-04T02:50:53.258Z,2.75
2023-04-04T02:51:53.224Z,2.74
2023-04-04T02:52:52.949Z,2.72
2023-04-04T02:53:53.205Z,2.70
2023-04-04T02:54:53.194Z,2.68
2023-04-04T02:55:53.166Z,2.64
2023-04-04T02:56:52.909Z,2.62
2023-04-04T02:57:52.900Z,2.59
2023-04-04T02:58:53.165Z,2.56
2023-04-04T02:59:52.862Z,2.53
2023-04-04T03:00:53.208Z,2.51
2023-04-04T03:01:52.931Z,2.48
2023-04-04T03:02:53.258Z,2.45
2023-04-04T03:03:53.216Z,2.42
2023-04-04T03:04:53.101Z,2.40
2023-04-04T03:05:53.078Z,2.36
2023-04-04T03:06:53.095Z,2.35
2023-04-04T03:07:53.045Z,2.33
2023-04-04T03:08:52.788Z,2.29
2023-04-04T03:09:53.057Z,2.27
2023-04-04T03:10:53.020Z,2.26
2023-04-04T03:11:53.026Z,2.22
2023-04-04T03:12:52.753Z,2.20
2023-04-04T03:13:52.052Z,2.18
2023-04-04T03:14:52.702Z,2.17
2023-04-04T03:15:52.990Z,2.14
2023-04-04T03:16:52.838Z,2.12
2023-04-04T03:17:52.747Z,2.10
2023-04-04T03:18:52.000Z,2.07
2023-04-04T03:19:52.950Z,2.05
2023-04-04T03:20:52.656Z,2.03
2023-04-04T03:21:52.917Z,2.01
2023-04-04T03:22:52.635Z,1.98
2023-04-04T03:23:52.646Z,1.97
2023-04-04T03:24:52.908Z,1.93
2023-04-04T03:25:52.605Z,1.92
2023-04-04T03:26:52.860Z,1.90
2023-04-04T03:27:52.851Z,1.88
2023-04-04T03:28:52.571Z,1.87
2023-04-04T03:29:52.540Z,1.86
2023-04-04T03:30:52.545Z,1.85
2023-04-04T03:31:52.541Z,1.83
2023-04-04T03:32:52.564Z,1.82
2023-04-04T03:33:52.779Z,1.80
2023-04-04T03:34:52.489Z,1.78
2023-04-04T03:35:52.797Z,1.77
2023-04-04T03:36:52.738Z,1.75
2023-04-04T03:37:52.539Z,1.74
2023-04-04T03:38:52.471Z,1.73
2023-04-04T03:39:52.750Z,1.71
2023-04-04T03:40:52.696Z,1.71
2023-04-04T03:41:52.427Z,1.69
2023-04-04T03:42:52.679Z,1.68
2023-04-04T03:43:52.681Z,1.66
2023-04-04T03:44:52.377Z,1.65
2023-04-04T03:45:51.761Z,1.63
2023-04-04T03:46:51.687Z,1.62
2023-04-04T03:47:51.701Z,1.60
2023-04-04T03:48:51.660Z,1.59
2023-04-04T03:49:52.351Z,1.57
2023-04-04T03:50:51.656Z,1.55
2023-04-04T03:51:51.639Z,1.53
2023-04-04T03:52:51.633Z,1.52
2023-04-04T03:53:52.311Z,1.48
2023-04-04T03:54:51.641Z,1.46
2023-04-04T03:55:52.833Z,1.43
2023-04-04T03:56:51.669Z,1.41
2023-04-04T03:57:52.261Z,1.39
2023-04-04T03:58:52.412Z,1.38
2023-04-04T03:59:52.269Z,1.35
2023-04-04T04:00:51.597Z,1.33
2023-04-04T04:01:52.326Z,1.32
2023-04-04T04:02:52.327Z,1.29
2023-04-04T04:03:52.268Z,1.29
2023-04-04T04:04:52.173Z,1.27
2023-04-04T04:05:51.519Z,1.26
2023-04-04T04:06:52.171Z,1.23
2023-04-04T04:07:52.164Z,1.22
2023-04-04T04:08:51.474Z,1.22
2023-04-04T04:09:51.472Z,1.21
2023-04-04T04:10:51.445Z,1.19
2023-04-04T04:11:51.441Z,1.19
2023-04-04T04:12:52.105Z,1.18
2023-04-04T04:13:52.100Z,1.17
2023-04-04T04:14:51.434Z,1.16
2023-04-04T04:15:51.451Z,1.16
2023-04-04T04:16:52.072Z,1.14
2023-04-04T04:17:52.076Z,1.14
2023-04-04T04:18:51.382Z,1.13
2023-04-04T04:19:51.373Z,1.12
2023-04-04T04:20:51.344Z,1.13
2023-04-04T04:21:52.017Z,1.12
2023-04-04T04:22:54.044Z,1.12
2023-04-04T04:23:51.993Z,1.10
2023-04-04T04:24:51.966Z,1.12
2023-04-04T04:25:51.289Z,1.10
2023-04-04T04:26:51.281Z,1.10
2023-04-04T04:27:51.273Z,1.09
2023-04-04T04:28:51.948Z,1.08
2023-04-04T04:29:51.920Z,1.07
2023-04-04T04:30:51.923Z,1.06
2023-04-04T04:31:51.231Z,1.05
2023-04-04T04:32:51.924Z,1.04
2023-04-04T04:33:52.156Z,1.04
2023-04-04T04:34:51.876Z,1.03
2023-04-04T04:35:51.219Z,1.02
2023-04-04T04:36:51.172Z,1.02
2023-04-04T04:37:51.164Z,1.02
2023-04-04T04:38:51.152Z,1.01
2023-04-04T04:39:51.814Z,1.02
2023-04-04T04:40:51.822Z,1.02
2023-04-04T04:41:51.132Z,1.03
2023-04-04T04:42:53.340Z,1.03
2023-04-04T04:43:51.793Z,1.04
2023-04-04T04:44:51.769Z,1.04
2023-04-04T04:45:51.771Z,1.05
2023-04-04T04:46:51.088Z,1.06
2023-04-04T04:47:51.812Z,1.07
2023-04-04T04:48:51.090Z,1.08
2023-04-04T04:49:51.711Z,1.08
2023-04-04T04:50:51.034Z,1.08
2023-04-04T04:51:51.723Z,1.09
2023-04-04T04:52:51.014Z,1.10
2023-04-04T04:53:51.014Z,1.10
2023-04-04T04:54:51.025Z,1.10
2023-04-04T04:55:51.668Z,1.10
2023-04-04T04:56:51.660Z,1.11
2023-04-04T04:57:50.972Z,1.11
2023-04-04T04:58:51.037Z,1.11
2023-04-04T04:59:50.951Z,1.11
2023-04-04T05:00:50.931Z,1.13
2023-04-04T05:01:50.947Z,1.13
2023-04-04T05:02:51.727Z,1.14
2023-04-04T05:03:52.911Z,1.14
2023-04-04T05:04:51.554Z,1.16
2023-04-04T05:05:50.885Z,1.15
2023-04-04T05:06:51.549Z,1.15
2023-04-04T05:07:51.544Z,1.15
2023-04-04T05:08:51.534Z,1.15
2023-04-04T05:09:51.504Z,1.15
2023-04-04T05:10:50.820Z,1.16
2023-04-04T05:11:51.523Z,1.16
2023-04-04T05:12:51.482Z,1.18
2023-04-04T05:13:50.776Z,1.19
2023-04-04T05:14:51.459Z,1.21
2023-04-04T05:15:51.456Z,1.22
2023-04-04T05:16:50.760Z,1.24
2023-04-04T05:17:50.751Z,1.25
2023-04-04T05:18:51.428Z,1.26
2023-04-04T05:19:51.427Z,1.27
2023-04-04T05:20:50.716Z,1.30
2023-04-04T05:21:51.396Z,1.33
2023-04-04T05:22:51.637Z,1.36
2023-04-04T05:23:51.371Z,1.40
2023-04-04T05:24:51.350Z,1.42
2023-04-04T05:25:51.349Z,1.44
2023-04-04T05:26:51.336Z,1.47
2023-04-04T05:27:50.647Z,1.51
2023-04-04T05:28:51.315Z,1.56
2023-04-04T05:29:50.631Z,1.61
2023-04-04T05:30:51.298Z,1.66
2023-04-04T05:31:51.326Z,1.72
2023-04-04T05:32:50.606Z,1.75
2023-04-04T05:33:50.570Z,1.77
2023-04-04T05:34:51.238Z,1.80
2023-04-04T05:35:51.348Z,1.83
2023-04-04T05:36:51.234Z,1.88
2023-04-04T05:37:51.221Z,1.94
2023-04-04T05:38:50.532Z,2.01
2023-04-04T05:39:51.202Z,2.11
2023-04-04T05:40:50.511Z,2.19
2023-04-04T05:41:50.506Z,2.23
2023-04-04T05:42:51.175Z,2.34
2023-04-04T05:43:50.483Z,2.46
2023-04-04T05:44:51.140Z,2.55
2023-04-04T05:45:50.478Z,2.65
2023-04-04T05:46:50.447Z,2.74
2023-04-04T05:47:51.184Z,3.07
2023-04-04T05:48:51.113Z,3.40
2023-04-04T05:49:51.130Z,3.65
2023-04-04T05:50:51.093Z,3.77
2023-04-04T05:51:51.081Z,3.82
2023-04-04T05:52:50.398Z,3.87
2023-04-04T05:53:51.061Z,3.91
2023-04-04T05:54:50.385Z,3.95
2023-04-04T05:55:50.364Z,4.03
2023-04-04T05:56:51.040Z,4.08
2023-04-04T05:57:51.023Z,4.25
2023-04-04T05:58:51.036Z,4.64
2023-04-04T05:59:50.333Z,5.23
2023-04-04T06:00:50.297Z,5.79
2023-04-04T06:01:50.971Z,6.10
2023-04-04T06:02:51.008Z,6.29
2023-04-04T06:03:51.041Z,6.45
2023-04-04T06:04:50.946Z,6.41
2023-04-04T06:05:50.336Z,6.30
2023-04-04T06:06:50.919Z,6.23
2023-04-04T06:07:50.905Z,6.12
2023-04-04T06:08:53.939Z,6.02
2023-04-04T06:09:50.212Z,6.04
2023-04-04T06:10:50.873Z,6.40
2023-04-04T06:11:50.871Z,6.73
2023-04-04T06:12:50.868Z,6.98
2023-04-04T06:13:50.852Z,7.25
2023-04-04T06:14:50.821Z,7.62
2023-04-04T06:15:50.154Z,7.88
2023-04-04T06:16:50.129Z,8.10
2023-04-04T06:17:50.171Z,8.50
2023-04-04T06:18:50.796Z,8.95
2023-04-04T06:19:50.785Z,9.39
2023-04-04T06:20:50.771Z,9.80
2023-04-04T06:21:50.092Z,10.15
2023-04-04T06:22:50.065Z,10.30
2023-04-04T06:23:50.071Z,10.45
2023-04-04T06:24:50.070Z,10.92
2023-04-04T06:25:50.718Z,11.23
2023-04-04T06:26:50.031Z,11.51
2023-04-04T06:27:50.013Z,11.87
2023-04-04T06:28:50.004Z,12.37
2023-04-04T06:29:50.020Z,12.92
2023-04-04T06:30:49.983Z,13.38
2023-04-04T06:31:50.019Z,13.79
2023-04-04T06:32:50.700Z,14.27
2023-04-04T06:33:49.977Z,14.74
2023-04-04T06:34:49.949Z,15.27
2023-04-04T06:35:50.625Z,15.71
2023-04-04T06:36:49.921Z,16.07
2023-04-04T06:37:49.910Z,16.37
2023-04-04T06:38:49.892Z,16.69
2023-04-04T06:39:49.882Z,17.21
2023-04-04T06:40:49.886Z,17.64
2023-04-04T06:41:50.546Z,18.16
2023-04-04T06:42:50.547Z,18.61
2023-04-04T06:43:50.549Z,19.05
2023-04-04T06:44:49.820Z,19.46
2023-04-04T06:45:50.478Z,19.84
2023-04-04T06:46:49.841Z,20.19
2023-04-04T06:47:50.490Z,20.53
2023-04-04T06:48:50.480Z,20.85
2023-04-04T06:49:50.436Z,21.16
2023-04-04T06:50:49.769Z,21.19
2023-04-04T06:51:49.757Z,21.08
2023-04-04T06:52:49.765Z,21.20
2023-04-04T06:53:49.740Z,20.90
2023-04-04T06:54:50.384Z,20.69
2023-04-04T06:55:49.694Z,20.43
2023-04-04T06:56:49.700Z,20.43
2023-04-04T06:57:49.691Z,20.70
2023-04-04T06:58:49.701Z,20.94
2023-04-04T06:59:49.681Z,21.32
2023-04-04T07:00:50.358Z,21.71
2023-04-04T07:01:50.368Z,22.09
2023-04-04T07:02:50.632Z,22.46
2023-04-04T07:03:50.301Z,22.79
2023-04-04T07:04:49.631Z,23.07
2023-04-04T07:05:49.591Z,23.34
2023-04-04T07:06:50.271Z,23.64
2023-04-04T07:07:49.572Z,23.82
2023-04-04T07:08:49.618Z,23.97
2023-04-04T07:09:49.575Z,24.16
2023-04-04T07:10:50.230Z,24.30
2023-04-04T07:11:49.528Z,24.30
2023-04-04T07:12:49.527Z,24.24
2023-04-04T07:13:49.503Z,24.16
2023-04-04T07:14:49.518Z,23.93
2023-04-04T07:15:49.487Z,23.56
2023-04-04T07:16:50.247Z,23.57
2023-04-04T07:17:50.175Z,23.75
2023-04-04T07:18:49.447Z,23.43
2023-04-04T07:19:49.454Z,23.56
2023-04-04T07:20:50.119Z,23.62
2023-04-04T07:21:50.109Z,23.74
2023-04-04T07:22:50.096Z,23.97
2023-04-04T07:23:50.093Z,24.29
2023-04-04T07:24:49.501Z,24.50
2023-04-04T07:25:49.480Z,24.61
2023-04-04T07:26:50.065Z,24.67
2023-04-04T07:27:50.432Z,24.76
2023-04-04T07:28:49.349Z,24.90
2023-04-04T07:29:50.009Z,25.06
2023-04-04T07:30:49.323Z,25.20
2023-04-04T07:31:49.419Z,25.36
2023-04-04T07:32:50.030Z,25.54
2023-04-04T07:33:49.981Z,25.67
2023-04-04T07:34:49.976Z,25.81
2023-04-04T07:35:49.359Z,26.02
2023-04-04T07:36:49.261Z,26.24
2023-04-04T07:37:49.241Z,26.42
2023-04-04T07:38:49.236Z,26.63
2023-04-04T07:39:49.220Z,26.74
2023-04-04T07:40:49.888Z,26.86
2023-04-04T07:41:49.899Z,27.05
2023-04-04T07:42:49.200Z,27.34
2023-04-04T07:43:49.186Z,27.69
2023-04-04T07:44:49.176Z,27.97
2023-04-04T07:45:49.885Z,28.23
2023-04-04T07:47:02.336Z,28.35
2023-04-04T07:47:50.176Z,28.30
2023-04-04T07:48:49.135Z,28.34
2023-04-04T07:49:49.119Z,28.39
2023-04-04T07:50:49.120Z,28.29
2023-04-04T07:51:49.779Z,28.17
2023-04-04T07:52:49.082Z,27.95
2023-04-04T07:53:49.072Z,27.72
2023-04-04T07:54:49.058Z,27.49
2023-04-04T07:55:49.102Z,27.33
2023-04-04T07:56:49.785Z,27.18
2023-04-04T07:57:49.798Z,27.15
2023-04-04T07:58:49.055Z,27.23
2023-04-04T07:59:49.005Z,27.33
2023-04-04T08:00:49.008Z,27.50
2023-04-04T08:01:48.993Z,27.71
2023-04-04T08:02:49.787Z,27.96
2023-04-04T08:03:49.769Z,28.21
2023-04-04T08:04:49.027Z,28.47
2023-04-04T08:05:49.607Z,28.76
2023-04-04T08:06:48.922Z,29.07
2023-04-04T08:07:49.625Z,29.40
2023-04-04T08:08:49.595Z,29.73
2023-04-04T08:09:48.897Z,29.98
2023-04-04T08:10:49.563Z,30.19
2023-04-04T08:11:49.573Z,30.35
2023-04-04T08:12:48.866Z,30.53
2023-04-04T08:13:48.853Z,30.68
2023-04-04T08:14:49.526Z,30.74
2023-04-04T08:15:49.551Z,30.67
2023-04-04T08:16:48.821Z,30.50
2023-04-04T08:17:49.525Z,30.39
2023-04-04T08:18:48.804Z,30.28
2023-04-04T08:19:49.469Z,30.19
2023-04-04T08:20:49.447Z,30.05
2023-04-04T08:21:48.789Z,30.01
2023-04-04T08:22:50.701Z,30.09
2023-04-04T08:23:49.426Z,30.18
2023-04-04T08:24:48.729Z,30.29
2023-04-04T08:25:48.793Z,30.40
2023-04-04T08:26:58.300Z,30.49
2023-04-04T08:27:50.379Z,30.57
2023-04-04T08:28:49.368Z,30.69
2023-04-04T08:29:49.362Z,30.78
2023-04-04T08:30:49.329Z,30.69
2023-04-04T08:31:49.392Z,30.55
2023-04-04T08:32:49.339Z,30.48
2023-04-04T08:33:49.377Z,30.56
2023-04-04T08:34:48.636Z,30.68
2023-04-04T08:35:49.316Z,30.76
2023-04-04T08:36:49.288Z,30.84
2023-04-04T08:37:49.270Z,30.88
2023-04-04T08:38:49.265Z,30.84
2023-04-04T08:39:48.636Z,30.76
2023-04-04T08:40:48.570Z,30.73
2023-04-04T08:41:48.559Z,30.79
2023-04-04T08:42:48.535Z,30.82
2023-04-04T08:43:49.201Z,30.86
2023-04-04T08:44:49.193Z,30.93
2023-04-04T08:45:49.164Z,31.01
2023-04-04T08:46:49.256Z,31.01
2023-04-04T08:47:49.217Z,30.91
2023-04-04T08:48:48.483Z,30.80
2023-04-04T08:49:49.146Z,30.72
2023-04-04T08:50:49.114Z,30.64
2023-04-04T08:51:48.454Z,30.61
2023-04-04T08:52:48.438Z,30.59
2023-04-04T08:53:49.099Z,30.36
2023-04-04T08:54:49.101Z,30.04
2023-04-04T08:55:49.061Z,29.77
2023-04-04T08:56:50.672Z,29.52
2023-04-04T08:57:49.057Z,29.29
2023-04-04T08:58:49.161Z,29.08
2023-04-04T08:59:49.079Z,28.87
2023-04-04T09:00:49.027Z,28.70
2023-04-04T09:01:49.025Z,28.58
2023-04-04T09:02:48.379Z,28.48
2023-04-04T09:03:48.319Z,28.31
2023-04-04T09:04:58.187Z,28.08
2023-04-04T09:05:50.718Z,27.85
2023-04-04T09:06:48.940Z,27.65
2023-04-04T09:07:48.266Z,27.55
2023-04-04T09:08:48.254Z,27.50
2023-04-04T09:09:48.246Z,27.47
2023-04-04T09:10:48.259Z,27.42
2023-04-04T09:11:48.224Z,27.37
2023-04-04T09:12:48.243Z,27.28
2023-04-04T09:13:48.495Z,27.08
2023-04-04T09:14:48.208Z,26.70
2023-04-04T09:15:48.207Z,26.35
2023-04-04T09:16:48.221Z,26.06
2023-04-04T09:17:48.192Z,25.86
2023-04-04T09:18:48.830Z,25.67
2023-04-04T09:19:48.819Z,25.51
2023-04-04T09:20:48.140Z,25.41
2023-04-04T09:21:48.782Z,25.38
2023-04-04T09:22:48.781Z,25.37
2023-04-04T09:23:48.775Z,25.36
2023-04-04T09:24:48.761Z,25.25
2023-04-04T09:26:02.584Z,25.14
2023-04-04T09:26:50.572Z,25.04
2023-04-04T09:27:48.031Z,24.91
2023-04-04T09:28:48.034Z,24.73
2023-04-04T09:29:48.033Z,24.57
2023-04-04T09:30:48.677Z,24.41
2023-04-04T09:31:48.918Z,24.25
2023-04-04T09:32:48.716Z,24.07
2023-04-04T09:33:47.977Z,23.91
2023-04-04T09:34:48.657Z,23.78
2023-04-04T09:35:48.011Z,23.59
2023-04-04T09:36:47.957Z,23.33
2023-04-04T09:37:47.940Z,23.04
2023-04-04T09:38:47.928Z,22.77
2023-04-04T09:39:48.606Z,22.54
2023-04-04T09:40:48.615Z,22.40
2023-04-04T09:41:48.569Z,22.27
2023-04-04T09:42:47.886Z,22.21
2023-04-04T09:43:47.900Z,22.21
2023-04-04T09:44:47.893Z,22.26
2023-04-04T09:45:48.748Z,22.20
2023-04-04T09:46:48.511Z,22.05
2023-04-04T09:47:48.562Z,21.82
2023-04-04T09:48:47.811Z,21.66
2023-04-04T09:49:48.492Z,21.56
2023-04-04T09:50:47.845Z,21.52
2023-04-04T09:51:49.263Z,21.53
2023-04-04T09:52:48.463Z,21.52
2023-04-04T09:53:47.743Z,21.49
2023-04-04T09:54:48.347Z,21.49
2023-04-04T09:55:48.397Z,21.47
2023-04-04T09:56:47.756Z,21.43
2023-04-04T09:57:48.402Z,21.37
2023-04-04T09:59:00.777Z,21.31
2023-04-04T09:59:48.763Z,21.28
2023-04-04T10:00:48.381Z,21.29
2023-04-04T10:01:47.718Z,21.35
2023-04-04T10:02:47.749Z,21.36
2023-04-04T10:03:48.368Z,21.30
2023-04-04T10:04:51.077Z,21.26
2023-04-04T10:05:48.625Z,21.25
2023-04-04T10:06:47.719Z,21.23
2023-04-04T10:07:47.616Z,21.27
2023-04-04T10:08:48.305Z,21.36
2023-04-04T10:09:48.275Z,21.52
2023-04-04T10:10:58.833Z,21.68
2023-04-04T10:11:50.013Z,21.86
2023-04-04T10:12:48.241Z,22.07
2023-04-04T10:13:48.229Z,22.32
2023-04-04T10:14:47.543Z,22.58
2023-04-04T10:15:48.305Z,22.82
2023-04-04T10:16:48.179Z,23.03
2023-04-04T10:17:48.215Z,23.31
2023-04-04T10:18:47.493Z,23.66
2023-04-04T10:19:48.437Z,23.92
2023-04-04T10:20:48.154Z,24.05
2023-04-04T10:21:48.132Z,24.22
2023-04-04T10:22:47.445Z,24.41
2023-04-04T10:23:48.133Z,24.50
2023-04-04T10:24:47.426Z,24.51
2023-04-04T10:25:48.098Z,24.47
2023-04-04T10:26:48.065Z,24.49
2023-04-04T10:27:47.804Z,24.45
2023-04-04T10:28:47.374Z,24.35
2023-04-04T10:29:48.053Z,24.48
2023-04-04T10:30:59.357Z,24.56
2023-04-04T10:31:49.059Z,24.49
2023-04-04T10:32:48.089Z,24.34
2023-04-04T10:33:48.016Z,23.98
2023-04-04T10:34:47.311Z,23.67
2023-04-04T10:35:47.355Z,23.12
2023-04-04T10:36:47.312Z,22.36
2023-04-04T10:37:47.983Z,21.37
2023-04-04T10:38:47.953Z,20.45
2023-04-04T10:39:47.944Z,19.68
2023-04-04T10:40:47.250Z,19.01
2023-04-04T10:41:47.913Z,18.48
2023-04-04T10:42:48.020Z,18.00
2023-04-04T10:43:47.916Z,17.54
2023-04-04T10:44:47.895Z,17.11
2023-04-04T10:45:47.216Z,16.81
2023-04-04T10:46:47.232Z,16.56
2023-04-04T10:47:47.886Z,16.40
2023-04-04T10:48:47.854Z,16.27
2023-04-04T10:49:47.842Z,16.23
2023-04-04T10:50:47.163Z,16.18
2023-04-04T10:51:55.682Z,16.13
2023-04-04T10:52:48.100Z,16.11
2023-04-04T10:53:47.105Z,16.11
2023-04-04T10:54:47.796Z,16.16
2023-04-04T10:55:47.779Z,16.23
2023-04-04T10:56:47.744Z,16.28
2023-04-04T10:57:47.755Z,16.33
2023-04-04T10:58:47.114Z,16.32
2023-04-04T10:59:47.731Z,16.24
2023-04-04T11:00:47.818Z,16.11
2023-04-04T11:01:47.015Z,16.02
2023-04-04T11:02:47.795Z,15.92
2023-04-04T11:03:47.692Z,15.85
2023-04-04T11:04:46.979Z,15.74
2023-04-04T11:05:47.658Z,15.62
2023-04-04T11:06:47.668Z,15.51
2023-04-04T11:08:00.725Z,15.40
2023-04-04T11:08:47.930Z,15.28
2023-04-04T11:09:46.941Z,15.10
2023-04-04T11:10:47.608Z,14.91
2023-04-04T11:11:47.601Z,14.71
2023-04-04T11:12:47.571Z,14.53
2023-04-04T11:13:47.570Z,14.33
2023-04-04T11:14:46.879Z,14.09
2023-04-04T11:15:47.557Z,13.88
2023-04-04T11:16:46.908Z,13.67
2023-04-04T11:17:46.901Z,13.48
2023-04-04T11:18:47.519Z,13.31
2023-04-04T11:19:47.508Z,13.16
2023-04-04T11:20:46.825Z,12.99
2023-04-04T11:21:46.818Z,12.86
2023-04-04T11:22:46.823Z,12.76
2023-04-04T11:23:48.792Z,12.70
2023-04-04T11:24:47.455Z,12.66
2023-04-04T11:25:46.773Z,12.62
2023-04-04T11:26:47.431Z,12.58
2023-04-04T11:27:46.835Z,12.56
2023-04-04T11:28:46.724Z,12.56
2023-04-04T11:29:47.402Z,12.61
2023-04-04T11:30:47.406Z,12.72
2023-04-04T11:31:46.719Z,12.84
2023-04-04T11:32:59.943Z,12.97
2023-04-04T11:33:47.672Z,13.11
2023-04-04T11:34:47.366Z,13.25
2023-04-04T11:35:46.666Z,13.39
2023-04-04T11:36:46.638Z,13.48
2023-04-04T11:37:47.292Z,13.52
2023-04-04T11:38:46.622Z,13.56
2023-04-04T11:39:46.634Z,13.60
2023-04-04T11:40:46.593Z,13.63
2023-04-04T11:41:47.266Z,13.67
2023-04-04T11:42:46.606Z,13.73
2023-04-04T11:43:47.266Z,13.79
2023-04-04T11:44:46.548Z,13.88
2023-04-04T11:45:47.259Z,13.95
2023-04-04T11:46:48.528Z,14.01
2023-04-04T11:47:47.292Z,14.08
2023-04-04T11:48:47.195Z,14.13
2023-04-04T11:49:47.204Z,14.19
2023-04-04T11:50:46.492Z,14.16
2023-04-04T11:51:47.164Z,14.11
2023-04-04T11:52:46.490Z,14.03
2023-04-04T11:53:47.137Z,13.94
2023-04-04T11:54:47.133Z,13.86
2023-04-04T11:55:47.120Z,13.75
2023-04-04T11:56:46.430Z,13.66
2023-04-04T11:57:46.425Z,13.57
2023-04-04T11:58:47.148Z,13.50
2023-04-04T11:59:47.167Z,13.41
2023-04-04T12:00:46.387Z,13.34
2023-04-04T12:01:46.378Z,13.26
2023-04-04T12:02:46.440Z,13.22
2023-04-04T12:03:47.083Z,13.17
2023-04-04T12:04:47.042Z,13.10
2023-04-04T12:05:46.352Z,13.04
2023-04-04T12:06:47.006Z,12.97
2023-04-04T12:07:46.332Z,12.88
2023-04-04T12:08:46.284Z,12.81
2023-04-04T12:09:46.964Z,12.76
2023-04-04T12:10:46.292Z,12.75
2023-04-04T12:11:46.947Z,12.72
2023-04-04T12:12:46.296Z,12.72
2023-04-04T12:13:46.923Z,12.72
2023-04-04T12:14:46.903Z,12.69
2023-04-04T12:15:46.945Z,12.68
2023-04-04T12:16:46.214Z,12.69
2023-04-04T12:17:46.229Z,12.71
2023-04-04T12:18:46.173Z,12.75
2023-04-04T12:19:46.177Z,12.80
2023-04-04T12:20:46.160Z,12.82
2023-04-04T12:21:46.845Z,12.82
2023-04-04T12:22:46.164Z,12.82
2023-04-04T12:23:46.145Z,12.81
2023-04-04T12:24:46.121Z,12.80
2023-04-04T12:25:46.096Z,12.75
2023-04-04T12:26:46.100Z,12.76
2023-04-04T12:27:46.101Z,12.76
2023-04-04T12:28:46.072Z,12.82
2023-04-04T12:29:47.009Z,12.89
2023-04-04T12:30:46.044Z,12.95
2023-04-04T12:31:46.793Z,12.99
2023-04-04T12:32:46.775Z,13.03
2023-04-04T12:33:46.687Z,13.07
2023-04-04T12:34:49.042Z,13.11
2023-04-04T12:35:46.009Z,13.13
2023-04-04T12:36:45.978Z,13.14
2023-04-04T12:37:47.404Z,13.13
2023-04-04T12:38:45.968Z,13.10
2023-04-04T12:39:46.632Z,13.08
2023-04-04T12:40:46.657Z,13.08
2023-04-04T12:41:46.611Z,13.08
2023-04-04T12:42:45.905Z,13.09
2023-04-04T12:43:45.916Z,13.14
2023-04-04T12:44:46.578Z,13.19
2023-04-04T12:45:46.567Z,13.23
2023-04-04T12:46:47.905Z,13.27
2023-04-04T12:47:45.902Z,13.31
2023-04-04T12:48:46.509Z,13.33
2023-04-04T12:49:45.849Z,13.30
2023-04-04T12:50:46.509Z,13.27
2023-04-04T12:51:46.495Z,13.24
2023-04-04T12:52:47.080Z,13.22
2023-04-04T12:53:46.453Z,13.22
2023-04-04T12:54:48.752Z,13.23
2023-04-04T12:55:47.208Z,13.23
2023-04-04T12:56:45.756Z,13.24
2023-04-04T12:57:46.452Z,13.22
2023-04-04T12:58:47.390Z,13.21
2023-04-04T12:59:46.409Z,13.21
2023-04-04T13:00:46.441Z,13.21
2023-04-04T13:01:46.384Z,13.23
2023-04-04T13:02:46.432Z,13.23
2023-04-04T13:03:45.721Z,13.25
2023-04-04T13:04:45.667Z,13.26